createdAt,value
2023-02-06T00:00:47.111Z,4.28
2023-02-06T00:02:50.098Z,4.27
2023-02-06T00:04:52.901Z,4.33
2023-02-06T00:06:57.065Z,4.39
2023-02-06T00:08:59.905Z,4.44
2023-02-06T00:11:04.758Z,4.47
2023-02-06T00:13:07.535Z,4.54
2023-02-06T00:15:10.914Z,4.59
2023-02-06T00:17:13.808Z,4.60
2023-02-06T00:19:16.753Z,4.65
2023-02-06T00:21:21.935Z,4.70
2023-02-06T00:23:26.098Z,4.68
2023-02-06T00:25:29.064Z,4.76
2023-02-06T00:27:32.053Z,4.78
2023-02-06T00:29:34.907Z,4.82
2023-02-06T00:31:37.771Z,4.85
2023-02-06T00:33:42.733Z,4.88
2023-02-06T00:35:45.545Z,4.88
2023-02-06T00:37:49.058Z,4.91
2023-02-06T00:39:53.351Z,4.93
2023-02-06T00:41:56.680Z,4.94
2023-02-06T00:43:59.463Z,4.97
2023-02-06T00:46:02.418Z,4.97
2023-02-06T00:48:05.432Z,4.98
2023-02-06T00:50:08.557Z,4.72
2023-02-06T00:52:11.409Z,4.86
2023-02-06T00:54:14.664Z,4.88
2023-02-06T00:56:20.141Z,4.87
2023-02-06T00:58:23.140Z,4.82
2023-02-06T01:00:25.961Z,4.79
2023-02-06T01:02:29.050Z,4.72
2023-02-06T01:04:39.028Z,4.71
2023-02-06T01:06:42.652Z,4.65
2023-02-06T01:08:45.656Z,4.60
2023-02-06T01:10:48.463Z,4.58
2023-02-06T01:12:52.798Z,4.48
2023-02-06T01:14:55.621Z,4.43
2023-02-06T01:16:58.410Z,4.41
2023-02-06T01:19:01.253Z,4.36
2023-02-06T01:21:09.187Z,4.35
2023-02-06T01:23:12.084Z,4.31
2023-02-06T01:25:14.983Z,4.26
2023-02-06T01:27:17.785Z,4.19
2023-02-06T01:29:22.032Z,4.13
2023-02-06T01:31:27.097Z,4.09
2023-02-06T01:33:30.465Z,4.09
2023-02-06T01:35:33.431Z,4.06
2023-02-06T01:37:36.888Z,4.03
2023-02-06T01:39:39.754Z,4.02
2023-02-06T01:41:42.580Z,3.99
2023-02-06T01:43:47.200Z,3.93
2023-02-06T01:45:51.441Z,3.84
2023-02-06T01:47:55.883Z,3.79
2023-02-06T01:49:58.689Z,3.78
2023-02-06T01:52:05.725Z,3.75
2023-02-06T01:54:09.047Z,3.72
2023-02-06T01:56:12.190Z,3.66
2023-02-06T01:58:18.821Z,3.65
2023-02-06T02:00:22.146Z,3.61
2023-02-06T02:02:28.277Z,3.53
2023-02-06T02:04:33.114Z,3.43
2023-02-06T02:06:36.169Z,3.44
2023-02-06T02:08:43.303Z,3.41
2023-02-06T02:10:47.579Z,3.41
2023-02-06T02:12:51.706Z,3.33
2023-02-06T02:14:55.037Z,3.34
2023-02-06T02:17:07.841Z,3.27
2023-02-06T02:19:58.204Z,3.26
2023-02-06T02:22:39.360Z,3.25
2023-02-06T02:24:57.060Z,3.21
2023-02-06T02:27:15.776Z,3.19
2023-02-06T02:29:40.112Z,3.17
2023-02-06T02:32:31.552Z,3.12
2023-02-06T02:35:03.021Z,3.04
2023-02-06T02:37:12.073Z,3.03
2023-02-06T02:39:19.847Z,2.99
2023-02-06T02:41:27.133Z,2.97
2023-02-06T02:43:35.551Z,2.96
2023-02-06T02:45:44.622Z,2.97
2023-02-06T02:47:53.081Z,2.91
2023-02-06T02:50:00.822Z,2.91
2023-02-06T02:52:03.935Z,2.87
2023-02-06T02:54:06.867Z,2.84
2023-02-06T02:56:20.531Z,2.83
2023-02-06T02:58:27.177Z,2.82
2023-02-06T03:00:30.819Z,2.81
2023-02-06T03:02:36.509Z,2.77
2023-02-06T03:04:42.265Z,2.77
2023-02-06T03:07:06.938Z,2.75
2023-02-06T03:09:15.211Z,2.70
2023-02-06T03:11:19.875Z,2.70
2023-02-06T03:13:28.039Z,2.69
2023-02-06T03:15:37.843Z,2.69
2023-02-06T03:17:43.344Z,2.70
2023-02-06T03:19:50.217Z,2.72
2023-02-06T03:21:53.089Z,2.71
2023-02-06T03:23:59.235Z,2.64
2023-02-06T03:26:04.231Z,2.80
2023-02-06T03:28:13.269Z,2.71
2023-02-06T03:30:18.551Z,2.62
2023-02-06T03:32:24.569Z,2.58
2023-02-06T03:34:32.881Z,2.59
2023-02-06T03:36:36.020Z,2.61
2023-02-06T03:38:38.924Z,2.63
2023-02-06T03:40:45.651Z,2.65
2023-02-06T03:42:51.720Z,2.68
2023-02-06T03:44:58.951Z,2.76
2023-02-06T03:47:03.351Z,2.75
2023-02-06T03:49:08.667Z,2.75
2023-02-06T03:51:14.516Z,2.74
2023-02-06T03:53:19.079Z,2.76
2023-02-06T03:55:24.289Z,2.76
2023-02-06T03:57:29.564Z,2.75
2023-02-06T03:59:32.732Z,2.76
2023-02-06T04:01:35.826Z,2.80
2023-02-06T04:03:38.750Z,2.92
2023-02-06T04:05:42.046Z,3.08
2023-02-06T04:07:44.949Z,3.19
2023-02-06T04:09:47.926Z,3.33
2023-02-06T04:11:50.708Z,3.39
2023-02-06T04:13:54.932Z,3.41
2023-02-06T04:15:57.760Z,3.41
2023-02-06T04:18:01.788Z,3.14
2023-02-06T04:20:05.200Z,3.07
2023-02-06T04:22:09.256Z,3.07
2023-02-06T04:24:12.033Z,3.06
2023-02-06T04:26:14.910Z,3.04
2023-02-06T04:28:17.772Z,3.06
2023-02-06T04:30:22.259Z,3.05
2023-02-06T04:32:25.156Z,3.01
2023-02-06T04:34:27.968Z,3.01
2023-02-06T04:36:30.807Z,3.03
2023-02-06T04:38:33.620Z,3.01
2023-02-06T04:40:36.554Z,2.94
2023-02-06T04:42:39.351Z,2.97
2023-02-06T04:44:42.202Z,2.95
2023-02-06T04:46:46.621Z,2.93
2023-02-06T04:48:49.463Z,2.99
2023-02-06T04:50:52.504Z,3.02
2023-02-06T04:52:55.320Z,3.07
2023-02-06T04:54:58.081Z,3.08
2023-02-06T04:57:01.254Z,3.10
2023-02-06T04:59:04.140Z,3.07
2023-02-06T05:01:07.317Z,3.01
2023-02-06T05:03:11.567Z,3.03
2023-02-06T05:05:14.726Z,3.10
2023-02-06T05:07:17.961Z,3.17
2023-02-06T05:09:21.129Z,3.18
2023-02-06T05:11:23.973Z,3.23
2023-02-06T05:13:27.013Z,3.25
2023-02-06T05:15:29.949Z,3.25
2023-02-06T05:17:33.109Z,3.27
2023-02-06T05:19:37.291Z,3.30
2023-02-06T05:21:40.150Z,3.34
2023-02-06T05:23:42.975Z,3.36
2023-02-06T05:25:45.809Z,3.39
2023-02-06T05:27:48.702Z,3.43
2023-02-06T05:29:51.493Z,3.45
2023-02-06T05:31:54.495Z,3.48
2023-02-06T05:33:57.314Z,3.52
2023-02-06T05:36:07.818Z,3.53
2023-02-06T05:38:10.655Z,3.54
2023-02-06T05:40:13.919Z,3.56
2023-02-06T05:42:16.751Z,3.58
2023-02-06T05:44:19.704Z,3.57
2023-02-06T05:46:22.563Z,3.61
2023-02-06T05:48:27.176Z,3.66
2023-02-06T05:50:30.087Z,3.68
2023-02-06T05:52:36.493Z,3.69
2023-02-06T05:54:39.284Z,3.65
2023-02-06T05:56:42.115Z,3.65
2023-02-06T05:58:44.895Z,3.72
2023-02-06T06:00:47.717Z,3.73
2023-02-06T06:02:50.589Z,3.77
2023-02-06T06:04:53.498Z,3.59
2023-02-06T06:06:56.523Z,3.72
2023-02-06T06:09:02.350Z,3.76
2023-02-06T06:11:05.245Z,3.75
2023-02-06T06:13:08.338Z,3.68
2023-02-06T06:15:11.351Z,3.79
2023-02-06T06:17:14.305Z,3.83
2023-02-06T06:19:17.252Z,3.90
2023-02-06T06:21:20.098Z,3.80
2023-02-06T06:23:23.109Z,3.86
2023-02-06T06:25:27.313Z,3.96
2023-02-06T06:27:30.444Z,3.84
2023-02-06T06:29:33.336Z,3.83
2023-02-06T06:31:36.275Z,3.76
2023-02-06T06:33:39.401Z,3.84
2023-02-06T06:35:42.261Z,3.78
2023-02-06T06:37:45.454Z,3.94
2023-02-06T06:39:48.389Z,4.01
2023-02-06T06:41:52.673Z,4.05
2023-02-06T06:43:57.022Z,4.09
2023-02-06T06:46:01.723Z,4.06
2023-02-06T06:48:04.899Z,4.07
2023-02-06T06:50:08.358Z,4.09
2023-02-06T06:52:24.135Z,4.09
2023-02-06T06:54:27.675Z,4.12
2023-02-06T06:56:30.536Z,4.02
2023-02-06T06:58:34.787Z,4.06
2023-02-06T07:00:38.729Z,4.13
2023-02-06T07:02:42.075Z,4.13
2023-02-06T07:04:45.072Z,4.01
2023-02-06T07:06:48.022Z,3.75
2023-02-06T07:08:50.843Z,4.01
2023-02-06T07:10:53.672Z,3.97
2023-02-06T07:12:56.724Z,4.00
2023-02-06T07:15:00.922Z,4.03
2023-02-06T07:17:03.726Z,3.73
2023-02-06T07:19:07.533Z,3.90
2023-02-06T07:21:10.811Z,4.02
2023-02-06T07:23:13.836Z,3.96
2023-02-06T07:25:17.083Z,4.04
2023-02-06T07:27:20.353Z,3.97
2023-02-06T07:29:23.236Z,3.92
2023-02-06T07:31:27.486Z,3.95
2023-02-06T07:33:30.765Z,4.01
2023-02-06T07:35:34.094Z,4.06
2023-02-06T07:37:37.128Z,4.06
2023-02-06T07:39:40.495Z,4.02
2023-02-06T07:41:43.461Z,4.06
2023-02-06T07:43:48.527Z,4.12
2023-02-06T07:45:51.452Z,4.22
2023-02-06T07:47:55.717Z,4.18
2023-02-06T07:49:58.626Z,4.06
2023-02-06T07:52:01.521Z,4.04
2023-02-06T07:54:04.360Z,4.21
2023-02-06T07:56:12.017Z,4.30
2023-02-06T07:58:14.953Z,4.38
2023-02-06T08:00:18.499Z,4.38
2023-02-06T08:02:21.777Z,4.41
2023-02-06T08:04:26.357Z,4.38
2023-02-06T08:06:29.283Z,4.39
2023-02-06T08:08:32.105Z,4.43
2023-02-06T08:10:35.109Z,4.45
2023-02-06T08:12:37.964Z,4.35
2023-02-06T08:14:41.279Z,4.19
2023-02-06T08:16:44.282Z,4.27
2023-02-06T08:18:47.599Z,4.33
2023-02-06T08:20:52.000Z,4.41
2023-02-06T08:22:55.177Z,4.38
2023-02-06T08:24:57.969Z,4.38
2023-02-06T08:27:00.782Z,4.33
2023-02-06T08:29:05.845Z,4.03
2023-02-06T08:31:13.220Z,4.15
2023-02-06T08:33:16.044Z,4.22
2023-02-06T08:35:19.089Z,4.21
2023-02-06T08:37:24.359Z,4.22
2023-02-06T08:39:27.561Z,4.25
2023-02-06T08:41:32.238Z,4.36
2023-02-06T08:43:35.231Z,4.37
2023-02-06T08:45:38.171Z,4.44
2023-02-06T08:47:41.021Z,4.55
2023-02-06T08:49:44.204Z,4.57
2023-02-06T08:51:47.546Z,4.58
2023-02-06T08:53:51.713Z,4.56
2023-02-06T08:55:59.607Z,4.52
2023-02-06T08:58:02.484Z,4.51
2023-02-06T09:00:06.346Z,4.33
2023-02-06T09:02:11.008Z,4.40
2023-02-06T09:04:15.125Z,4.38
2023-02-06T09:06:17.934Z,4.28
2023-02-06T09:08:20.850Z,4.28
2023-02-06T09:10:27.774Z,4.30
2023-02-06T09:12:31.245Z,4.33
2023-02-06T09:14:35.382Z,4.28
2023-02-06T09:16:38.562Z,4.28
2023-02-06T09:18:41.792Z,4.42
2023-02-06T09:20:46.096Z,4.42
2023-02-06T09:22:49.156Z,4.47
2023-02-06T09:24:52.046Z,4.58
2023-02-06T09:27:00.740Z,4.45
2023-02-06T09:29:07.803Z,4.46
2023-02-06T09:31:11.832Z,4.37
2023-02-06T09:33:14.821Z,4.42
2023-02-06T09:35:17.974Z,4.44
2023-02-06T09:37:21.477Z,4.37
2023-02-06T09:39:24.397Z,4.51
2023-02-06T09:41:31.144Z,4.71
2023-02-06T09:43:35.889Z,4.56
2023-02-06T09:45:38.943Z,4.59
2023-02-06T09:47:47.360Z,4.70
2023-02-06T09:49:52.546Z,4.59
2023-02-06T09:52:16.323Z,4.73
2023-02-06T09:54:23.992Z,4.86
2023-02-06T09:56:33.981Z,4.98
2023-02-06T09:58:43.799Z,5.07
2023-02-06T10:00:52.302Z,5.06
2023-02-06T10:03:20.545Z,4.89
2023-02-06T10:05:26.434Z,4.85
2023-02-06T10:07:47.496Z,4.66
2023-02-06T10:09:54.904Z,4.69
2023-02-06T10:11:59.536Z,4.78
2023-02-06T10:14:06.914Z,4.94
2023-02-06T10:16:20.257Z,5.00
2023-02-06T10:18:27.250Z,5.23
2023-02-06T10:20:34.082Z,5.43
2023-02-06T10:22:44.050Z,5.41
2023-02-06T10:24:51.750Z,5.50
2023-02-06T10:26:54.899Z,5.65
2023-02-06T10:28:59.696Z,5.71
2023-02-06T10:31:24.699Z,5.72
2023-02-06T10:33:32.653Z,5.53
2023-02-06T10:35:44.957Z,6.09
2023-02-06T10:38:04.868Z,6.17
2023-02-06T10:40:41.608Z,6.37
2023-02-06T10:42:50.375Z,6.86
2023-02-06T10:45:13.169Z,6.88
2023-02-06T10:47:30.535Z,7.15
2023-02-06T10:49:36.178Z,7.30
2023-02-06T10:51:42.511Z,7.31
2023-02-06T10:53:50.213Z,7.49
2023-02-06T10:55:56.244Z,7.57
2023-02-06T10:58:05.577Z,7.63
2023-02-06T11:00:17.368Z,7.76
2023-02-06T11:02:25.562Z,7.75
2023-02-06T11:04:33.825Z,7.79
2023-02-06T11:06:37.416Z,7.61
2023-02-06T11:08:43.135Z,7.86
2023-02-06T11:10:46.507Z,7.89
2023-02-06T11:12:52.581Z,7.74
2023-02-06T11:14:56.197Z,7.85
2023-02-06T11:17:00.158Z,7.93
2023-02-06T11:19:16.023Z,8.07
2023-02-06T11:22:03.517Z,8.05
2023-02-06T11:24:10.933Z,8.11
2023-02-06T11:27:09.545Z,8.12
2023-02-06T11:29:16.166Z,8.13
2023-02-06T11:31:20.901Z,8.20
2023-02-06T11:33:28.078Z,8.21
2023-02-06T11:35:35.017Z,8.10
2023-02-06T11:37:40.734Z,8.14
2023-02-06T11:39:43.572Z,8.12
2023-02-06T11:41:57.754Z,7.89
2023-02-06T11:44:06.468Z,8.00
2023-02-06T11:46:16.057Z,7.91
2023-02-06T11:48:39.837Z,7.93
2023-02-06T11:50:55.522Z,8.00
2023-02-06T11:53:02.304Z,7.96
2023-02-06T11:55:05.791Z,7.92
2023-02-06T11:57:20.547Z,7.92
2023-02-06T11:59:24.309Z,7.42
2023-02-06T12:01:27.124Z,7.58
2023-02-06T12:03:34.976Z,7.44
2023-02-06T12:05:41.126Z,7.49
2023-02-06T12:07:48.842Z,7.45
2023-02-06T12:09:52.924Z,7.55
2023-02-06T12:12:00.445Z,7.27
2023-02-06T12:14:06.565Z,7.18
2023-02-06T12:16:10.018Z,7.26
2023-02-06T12:18:15.584Z,7.25
2023-02-06T12:20:22.450Z,7.01
2023-02-06T12:22:26.765Z,6.88
2023-02-06T12:24:34.976Z,7.15
2023-02-06T12:26:39.176Z,7.22
2023-02-06T12:28:51.471Z,7.37
2023-02-06T12:30:57.350Z,7.44
2023-02-06T12:33:05.996Z,7.46
2023-02-06T12:35:16.341Z,7.30
2023-02-06T12:37:22.892Z,7.48
2023-02-06T12:39:26.059Z,7.50
2023-02-06T12:41:55.581Z,7.42
2023-02-06T12:44:01.970Z,7.51
2023-02-06T12:46:07.636Z,7.49
2023-02-06T12:48:16.725Z,7.46
2023-02-06T12:50:23.208Z,7.53
2023-02-06T12:52:30.940Z,7.57
2023-02-06T12:54:44.213Z,7.62
2023-02-06T12:56:50.890Z,7.60
2023-02-06T12:58:59.643Z,7.69
2023-02-06T13:01:34.727Z,7.63
2023-02-06T13:03:43.127Z,7.60
2023-02-06T13:05:47.890Z,7.45
2023-02-06T13:07:51.884Z,7.48
2023-02-06T13:09:56.650Z,7.28
2023-02-06T13:12:12.479Z,7.10
2023-02-06T13:14:20.011Z,7.30
2023-02-06T13:16:22.874Z,7.41
2023-02-06T13:18:58.618Z,7.50
2023-02-06T13:21:18.686Z,7.53
2023-02-06T13:23:24.353Z,7.49
2023-02-06T13:25:50.968Z,7.43
2023-02-06T13:27:55.989Z,7.81
2023-02-06T13:30:18.149Z,8.00
2023-02-06T13:32:46.408Z,7.92
2023-02-06T13:34:53.726Z,8.09
2023-02-06T13:36:56.589Z,8.11
2023-02-06T13:39:14.231Z,8.09
2023-02-06T13:41:37.207Z,8.18
2023-02-06T13:43:42.843Z,7.83
2023-02-06T13:45:48.027Z,8.19
2023-02-06T13:48:11.143Z,8.10
2023-02-06T13:50:32.856Z,8.11
2023-02-06T13:52:40.830Z,8.18
2023-02-06T13:54:59.560Z,8.18
2023-02-06T13:57:19.063Z,8.13
2023-02-06T13:59:25.999Z,8.17
2023-02-06T14:01:30.692Z,7.72
2023-02-06T14:03:38.200Z,7.99
2023-02-06T14:05:47.404Z,7.98
2023-02-06T14:08:04.712Z,7.97
2023-02-06T14:10:21.048Z,7.95
2023-02-06T14:12:36.586Z,7.96
2023-02-06T14:14:52.714Z,7.92
2023-02-06T14:17:03.826Z,7.94
2023-02-06T14:19:12.020Z,7.86
2023-02-06T14:21:24.530Z,7.73
2023-02-06T14:23:39.131Z,7.74
2023-02-06T14:26:00.468Z,7.76
2023-02-06T14:28:10.418Z,7.75
2023-02-06T14:30:24.059Z,7.61
2023-02-06T14:32:40.019Z,7.47
2023-02-06T14:34:54.505Z,7.60
2023-02-06T14:37:07.184Z,7.62
2023-02-06T14:39:35.516Z,7.62
2023-02-06T14:41:39.663Z,7.60
2023-02-06T14:43:44.366Z,7.47
2023-02-06T14:46:06.233Z,7.21
2023-02-06T14:48:19.291Z,7.48
2023-02-06T14:50:25.013Z,7.51
2023-02-06T14:52:30.092Z,7.43
2023-02-06T14:54:34.827Z,7.31
2023-02-06T14:56:39.269Z,7.25
2023-02-06T14:58:46.063Z,7.40
2023-02-06T15:00:50.351Z,7.41
2023-02-06T15:03:04.263Z,7.41
2023-02-06T15:05:07.608Z,7.38
2023-02-06T15:07:23.346Z,7.42
2023-02-06T15:09:29.182Z,7.45
2023-02-06T15:11:33.460Z,7.52
2023-02-06T15:13:37.335Z,7.58
2023-02-06T15:15:55.153Z,7.57
2023-02-06T15:18:03.037Z,7.55
2023-02-06T15:20:40.248Z,7.57
2023-02-06T15:22:43.284Z,7.50
2023-02-06T15:24:56.002Z,7.55
2023-02-06T15:27:04.272Z,7.49
2023-02-06T15:29:16.230Z,7.38
2023-02-06T15:31:22.498Z,7.35
2023-02-06T15:33:28.169Z,7.32
2023-02-06T15:35:34.165Z,7.34
2023-02-06T15:37:37.350Z,7.36
2023-02-06T15:39:40.527Z,7.39
2023-02-06T15:41:45.594Z,7.39
2023-02-06T15:43:48.766Z,7.30
2023-02-06T15:45:52.902Z,7.35
2023-02-06T15:47:57.461Z,7.26
2023-02-06T15:50:00.757Z,7.29
2023-02-06T15:52:03.910Z,7.10
2023-02-06T15:54:08.730Z,7.12
2023-02-06T15:56:21.928Z,7.16
2023-02-06T15:58:25.403Z,7.15
2023-02-06T16:00:31.104Z,6.81
2023-02-06T16:02:35.666Z,6.93
2023-02-06T16:04:40.716Z,6.72
2023-02-06T16:06:43.972Z,6.78
2023-02-06T16:08:50.506Z,6.80
2023-02-06T16:10:55.215Z,6.74
2023-02-06T16:13:00.173Z,6.72
2023-02-06T16:15:05.005Z,6.62
2023-02-06T16:17:26.386Z,6.58
2023-02-06T16:19:48.787Z,6.57
2023-02-06T16:22:05.796Z,6.50
2023-02-06T16:24:17.751Z,6.48
2023-02-06T16:26:22.462Z,6.35
2023-02-06T16:28:27.866Z,6.33
2023-02-06T16:30:32.602Z,6.35
2023-02-06T16:32:36.003Z,6.17
2023-02-06T16:34:41.293Z,6.29
2023-02-06T16:36:45.732Z,6.18
2023-02-06T16:39:02.731Z,6.24
2023-02-06T16:41:27.424Z,6.26
2023-02-06T16:43:31.548Z,6.25
2023-02-06T16:45:34.409Z,6.23
2023-02-06T16:47:37.845Z,6.11
2023-02-06T16:49:40.783Z,6.21
2023-02-06T16:51:46.045Z,6.26
2023-02-06T16:53:49.683Z,6.22
2023-02-06T16:55:53.063Z,6.25
2023-02-06T16:57:58.604Z,6.27
2023-02-06T17:00:02.140Z,6.27
2023-02-06T17:02:12.609Z,6.30
2023-02-06T17:04:15.537Z,6.22
2023-02-06T17:06:21.876Z,6.17
2023-02-06T17:08:26.213Z,6.14
2023-02-06T17:10:29.110Z,6.04
2023-02-06T17:12:32.061Z,5.96
2023-02-06T17:14:34.942Z,5.91
2023-02-06T17:16:37.872Z,5.99
2023-02-06T17:18:40.795Z,5.92
2023-02-06T17:20:45.468Z,5.90
2023-02-06T17:22:50.773Z,5.92
2023-02-06T17:24:55.103Z,5.88
2023-02-06T17:26:58.926Z,5.90
2023-02-06T17:29:01.842Z,5.96
2023-02-06T17:31:04.843Z,5.97
2023-02-06T17:33:08.060Z,5.98
2023-02-06T17:35:12.781Z,5.95
2023-02-06T17:37:20.740Z,5.99
2023-02-06T17:39:24.089Z,5.91
2023-02-06T17:41:30.718Z,5.82
2023-02-06T17:43:36.191Z,5.77
2023-02-06T17:45:39.781Z,5.81
2023-02-06T17:47:42.848Z,5.77
2023-02-06T17:49:46.698Z,5.77
2023-02-06T17:51:49.557Z,5.69
2023-02-06T17:53:52.626Z,5.67
2023-02-06T17:55:55.819Z,5.64
2023-02-06T17:58:00.470Z,5.58
2023-02-06T18:00:04.381Z,5.59
2023-02-06T18:02:07.860Z,5.53
2023-02-06T18:04:12.580Z,5.56
2023-02-06T18:06:15.540Z,5.53
2023-02-06T18:08:19.299Z,5.49
2023-02-06T18:10:23.808Z,5.45
2023-02-06T18:12:26.664Z,5.41
2023-02-06T18:14:31.004Z,5.36
2023-02-06T18:16:34.100Z,5.33
2023-02-06T18:18:37.022Z,5.29
2023-02-06T18:20:41.989Z,5.27
2023-02-06T18:22:47.385Z,5.24
2023-02-06T18:24:51.341Z,5.19
2023-02-06T18:26:54.174Z,5.14
2023-02-06T18:28:57.081Z,5.08
2023-02-06T18:31:02.144Z,5.01
2023-02-06T18:33:05.231Z,4.99
2023-02-06T18:35:09.241Z,4.90
2023-02-06T18:37:12.161Z,4.69
2023-02-06T18:39:15.080Z,4.60
2023-02-06T18:41:32.357Z,4.61
2023-02-06T18:43:35.546Z,4.63
2023-02-06T18:45:39.653Z,4.63
2023-02-06T18:47:43.986Z,4.62
2023-02-06T18:49:47.023Z,4.61
2023-02-06T18:51:50.209Z,4.62
2023-02-06T18:53:53.060Z,4.56
2023-02-06T18:55:58.788Z,4.44
2023-02-06T18:58:01.901Z,4.47
2023-02-06T19:00:06.381Z,4.51
2023-02-06T19:02:11.051Z,4.48
2023-02-06T19:04:15.333Z,4.52
2023-02-06T19:06:20.423Z,4.51
2023-02-06T19:08:30.641Z,4.47
2023-02-06T19:10:33.897Z,4.45
2023-02-06T19:12:38.119Z,4.32
2023-02-06T19:14:42.767Z,4.23
2023-02-06T19:16:47.992Z,4.18
2023-02-06T19:18:50.860Z,4.02
2023-02-06T19:20:55.106Z,3.97
2023-02-06T19:22:58.010Z,3.94
2023-02-06T19:25:00.916Z,3.86
2023-02-06T19:27:03.838Z,3.84
2023-02-06T19:29:07.272Z,3.84
2023-02-06T19:31:11.379Z,3.86
2023-02-06T19:33:14.311Z,3.83
2023-02-06T19:35:17.201Z,3.80
2023-02-06T19:37:21.918Z,3.77
2023-02-06T19:39:26.044Z,3.71
2023-02-06T19:41:30.441Z,3.67
2023-02-06T19:43:33.364Z,3.64
2023-02-06T19:45:37.274Z,3.64
2023-02-06T19:47:40.190Z,3.60
2023-02-06T19:49:43.598Z,3.55
2023-02-06T19:51:46.456Z,3.49
2023-02-06T19:53:51.787Z,3.44
2023-02-06T19:55:54.758Z,3.36
2023-02-06T19:57:57.770Z,3.37
2023-02-06T20:00:00.819Z,3.32
2023-02-06T20:02:04.142Z,3.26
2023-02-06T20:04:07.122Z,3.22
2023-02-06T20:06:11.997Z,3.21
2023-02-06T20:08:15.006Z,3.15
2023-02-06T20:10:19.278Z,3.20
2023-02-06T20:12:22.194Z,3.27
2023-02-06T20:14:33.349Z,3.22
2023-02-06T20:16:38.831Z,3.25
2023-02-06T20:18:41.763Z,3.23
2023-02-06T20:20:47.056Z,3.21
2023-02-06T20:22:49.968Z,3.17
2023-02-06T20:24:53.009Z,3.09
2023-02-06T20:26:59.554Z,3.09
2023-02-06T20:29:02.755Z,3.08
2023-02-06T20:31:09.077Z,3.03
2023-02-06T20:33:12.198Z,2.99
2023-02-06T20:35:15.107Z,2.98
2023-02-06T20:37:18.735Z,2.93
2023-02-06T20:39:21.960Z,2.93
2023-02-06T20:41:27.650Z,2.93
2023-02-06T20:43:31.996Z,2.87
2023-02-06T20:45:35.149Z,2.91
2023-02-06T20:47:38.069Z,2.83
2023-02-06T20:49:41.921Z,2.79
2023-02-06T20:51:44.838Z,2.77
2023-02-06T20:53:48.060Z,2.81
2023-02-06T20:55:50.938Z,2.79
2023-02-06T20:58:00.112Z,2.79
2023-02-06T21:00:05.186Z,2.82
2023-02-06T21:02:08.091Z,2.83
2023-02-06T21:04:13.441Z,2.81
2023-02-06T21:06:16.828Z,2.79
2023-02-06T21:08:19.682Z,2.84
2023-02-06T21:10:22.907Z,2.87
2023-02-06T21:12:33.323Z,2.84
2023-02-06T21:14:36.183Z,2.81
2023-02-06T21:16:40.647Z,2.75
2023-02-06T21:18:43.892Z,2.84
2023-02-06T21:20:46.821Z,2.75
2023-02-06T21:22:52.802Z,2.76
2023-02-06T21:24:55.748Z,2.73
2023-02-06T21:26:58.656Z,2.75
2023-02-06T21:29:02.535Z,2.73
2023-02-06T21:31:07.292Z,2.70
2023-02-06T21:33:11.585Z,2.72
2023-02-06T21:35:14.601Z,2.74
2023-02-06T21:37:17.968Z,2.72
2023-02-06T21:39:23.573Z,2.64
2023-02-06T21:41:26.523Z,2.70
2023-02-06T21:43:29.585Z,2.67
2023-02-06T21:45:32.443Z,2.64
2023-02-06T21:47:35.689Z,2.66
2023-02-06T21:49:40.135Z,2.64
2023-02-06T21:51:43.044Z,2.57
2023-02-06T21:53:46.586Z,2.55
2023-02-06T21:55:50.133Z,2.49
2023-02-06T21:57:53.096Z,2.38
2023-02-06T21:59:56.004Z,2.49
2023-02-06T22:01:59.086Z,2.41
2023-02-06T22:04:03.398Z,2.45
2023-02-06T22:06:09.195Z,2.42
2023-02-06T22:08:12.098Z,2.47
2023-02-06T22:10:15.009Z,2.43
2023-02-06T22:12:18.051Z,2.32
2023-02-06T22:14:21.344Z,2.29
2023-02-06T22:16:24.780Z,2.31
2023-02-06T22:18:28.540Z,2.30
2023-02-06T22:20:31.438Z,2.28
2023-02-06T22:22:37.220Z,2.25
2023-02-06T22:24:40.108Z,2.17
2023-02-06T22:26:43.307Z,2.16
2023-02-06T22:28:46.638Z,2.13
2023-02-06T22:30:49.656Z,2.08
2023-02-06T22:32:52.568Z,2.11
2023-02-06T22:34:55.507Z,2.20
2023-02-06T22:36:58.729Z,2.21
2023-02-06T22:39:06.433Z,2.23
2023-02-06T22:41:11.737Z,2.17
2023-02-06T22:43:14.626Z,2.17
2023-02-06T22:45:17.636Z,2.21
2023-02-06T22:47:20.759Z,2.23
2023-02-06T22:49:24.676Z,2.26
2023-02-06T22:51:28.275Z,2.26
2023-02-06T22:53:30.130Z,2.22
2023-02-06T22:55:53.535Z,2.21
2023-02-06T22:57:56.383Z,2.17
2023-02-06T22:59:59.366Z,2.12
2023-02-06T23:02:02.472Z,2.11
2023-02-06T23:04:07.302Z,1.99
2023-02-06T23:06:11.668Z,1.98
2023-02-06T23:08:15.830Z,1.74
2023-02-06T23:10:18.903Z,1.63
2023-02-06T23:12:23.333Z,1.65
2023-02-06T23:14:27.027Z,1.66
2023-02-06T23:16:31.427Z,1.65
2023-02-06T23:18:35.008Z,1.56
2023-02-06T23:20:38.276Z,1.58
2023-02-06T23:22:41.165Z,1.50
2023-02-06T23:24:44.088Z,1.37
2023-02-06T23:26:48.986Z,1.30
2023-02-06T23:28:53.273Z,1.35
2023-02-06T23:30:56.343Z,1.36
2023-02-06T23:32:59.166Z,1.39
2023-02-06T23:35:02.084Z,1.39
2023-02-06T23:37:05.057Z,1.37
2023-02-06T23:39:07.942Z,1.24
2023-02-06T23:41:12.644Z,1.31
2023-02-06T23:43:15.633Z,1.15
2023-02-06T23:45:20.033Z,1.05
2023-02-06T23:47:22.927Z,1.06
2023-02-06T23:49:25.787Z,1.06
2023-02-06T23:51:29.935Z,0.97
2023-02-06T23:53:33.024Z,0.94
2023-02-06T23:55:36.297Z,0.79
2023-02-06T23:57:40.539Z,0.87
2023-02-06T23:59:43.575Z,0.83
